Time;durP1;ratioP1;P1;durP2;ratioP2;P2;SDS_P1;SDS_P2;PMS_P1;PMS_P2;Temp;Humidity;BMP_temperature;BMP_pressure;BME280_temperature;BME280_humidity;BME280_pressure;Samples;Min_cycle;Max_cycle;Signal;HPM_P1;HPM_P2
2023/04/26 00:00:23;;;;;;;0.00;0.00;;;2.00;5.40;;;;;;4985060;28;20053;-80
2023/04/26 00:02:49;;;;;;;0.08;0.08;;;1.90;1.00;;;;;;4983799;28;20519;-80
2023/04/26 00:05:15;;;;;;;0.00;0.00;;;1.90;1.00;;;;;;4982761;28;20061;-80
2023/04/26 00:07:42;;;;;;;0.10;0.10;;;1.70;1.00;;;;;;4983276;28;20050;-80
2023/04/26 00:10:09;;;;;;;0.00;0.00;;;1.60;51.60;;;;;;4981279;28;20080;-78
2023/04/26 00:12:35;;;;;;;0.00;0.00;;;1.50;43.50;;;;;;4977334;28;20058;-77
2023/04/26 00:15:04;;;;;;;0.00;0.00;;;1.50;99.90;;;;;;4980691;28;20055;-77
2023/04/26 00:17:30;;;;;;;0.10;0.10;;;1.60;99.90;;;;;;4978866;28;20061;-78
2023/04/26 00:19:56;;;;;;;0.00;0.00;;;1.80;99.90;;;;;;4980874;28;20960;-79
2023/04/26 00:22:23;;;;;;;1.45;0.32;;;1.80;99.90;;;;;;4981592;28;20534;-79
2023/04/26 00:24:48;;;;;;;0.10;0.10;;;1.80;99.90;;;;;;4982221;28;20398;-78
2023/04/26 00:27:15;;;;;;;0.00;0.00;;;1.90;99.90;;;;;;4981978;28;20054;-78
2023/04/26 00:29:41;;;;;;;0.80;0.80;;;2.00;99.90;;;;;;4982996;28;20046;-79
2023/04/26 00:32:07;;;;;;;0.00;0.00;;;2.00;99.90;;;;;;4975165;28;20051;-80
2023/04/26 00:34:37;;;;;;;0.00;0.00;;;2.00;99.90;;;;;;4972767;28;20059;-80
2023/04/26 00:37:04;;;;;;;4.90;2.75;;;2.00;99.90;;;;;;4971623;28;20180;-78
2023/04/26 00:39:30;;;;;;;0.30;0.30;;;1.90;99.90;;;;;;4965750;28;20523;-79
2023/04/26 00:41:56;;;;;;;0.10;0.10;;;1.80;99.90;;;;;;4967719;28;20039;-80
2023/04/26 00:44:22;;;;;;;0.00;0.00;;;1.70;99.90;;;;;;4971188;28;20496;-80
2023/04/26 00:46:50;;;;;;;0.57;0.57;;;1.70;99.90;;;;;;4971460;28;20054;-80
2023/04/26 00:49:20;;;;;;;0.00;0.00;;;1.70;99.90;;;;;;4971534;28;20080;-78
2023/04/26 00:51:46;;;;;;;1.85;1.05;;;1.70;99.90;;;;;;4965829;28;20082;-78
2023/04/26 00:54:13;;;;;;;0.00;0.00;;;1.80;99.90;;;;;;4964127;28;20055;-78
2023/04/26 00:56:42;;;;;;;0.43;0.35;;;1.80;99.90;;;;;;4965873;28;20378;-77
2023/04/26 00:59:07;;;;;;;0.00;0.00;;;1.80;99.90;;;;;;4969693;28;20062;-79
2023/04/26 01:01:34;;;;;;;0.32;0.32;;;1.80;99.90;;;;;;4971076;28;20047;-79
2023/04/26 01:04:01;;;;;;;1.63;1.52;;;1.60;99.90;;;;;;4970726;28;20051;-79
2023/04/26 01:06:32;;;;;;;0.00;0.00;;;1.60;99.90;;;;;;4970617;28;20081;-78
2023/04/26 01:09:13;;;;;;;0.63;0.63;;;1.60;99.90;;;;;;4970781;28;20051;-79
2023/04/26 01:11:40;;;;;;;0.00;0.00;;;1.50;99.90;;;;;;4970368;28;20046;-79
2023/04/26 01:14:07;;;;;;;0.10;0.10;;;1.50;99.90;;;;;;4971619;28;20069;-78
2023/04/26 01:16:33;;;;;;;0.00;0.00;;;1.50;99.90;;;;;;4971244;28;20122;-80
2023/04/26 01:19:08;;;;;;;0.00;0.00;;;1.40;99.90;;;;;;4970727;28;20079;-79
2023/04/26 01:21:34;;;;;;;0.00;0.00;;;1.30;99.90;;;;;;4970956;28;20042;-79
2023/04/26 01:24:00;;;;;;;0.63;0.63;;;1.20;99.90;;;;;;4970775;28;20046;-79
2023/04/26 01:26:26;;;;;;;0.00;0.00;;;1.10;99.90;;;;;;4970827;28;20623;-78
2023/04/26 01:28:51;;;;;;;0.00;0.00;;;1.00;99.90;;;;;;4970044;28;20051;-78
2023/04/26 01:31:17;;;;;;;0.13;0.13;;;0.90;99.90;;;;;;4970412;28;20049;-78
2023/04/26 01:33:43;;;;;;;0.00;0.00;;;0.80;99.90;;;;;;4970448;28;20042;-79
2023/04/26 01:36:09;;;;;;;0.00;0.00;;;1.10;99.90;;;;;;4970603;28;20092;-78
2023/04/26 01:38:35;;;;;;;0.10;0.10;;;0.60;99.90;;;;;;4970817;28;20086;-79
2023/04/26 01:41:01;;;;;;;0.00;0.00;;;0.60;99.90;;;;;;4969723;28;20046;-77
2023/04/26 01:43:26;;;;;;;0.35;0.35;;;0.50;99.90;;;;;;4965417;28;20078;-78
2023/04/26 01:45:52;;;;;;;0.00;0.00;;;0.40;99.90;;;;;;4970544;28;20578;-78
2023/04/26 01:48:18;;;;;;;0.00;0.00;;;0.40;99.90;;;;;;4972290;28;20096;-78
2023/04/26 01:50:44;;;;;;;0.00;0.00;;;0.50;99.90;;;;;;4972620;28;20054;-79
2023/04/26 01:53:10;;;;;;;0.00;0.00;;;0.60;99.90;;;;;;4974404;28;20047;-78
2023/04/26 01:55:36;;;;;;;0.00;0.00;;;0.60;99.90;;;;;;4974413;28;20538;-78
2023/04/26 01:58:01;;;;;;;0.00;0.00;;;0.90;99.90;;;;;;4973671;28;20075;-78
2023/04/26 02:00:28;;;;;;;0.75;0.70;;;0.80;99.90;;;;;;4974130;28;20046;-78
2023/04/26 02:02:55;;;;;;;0.28;0.20;;;0.90;99.90;;;;;;4972873;28;20049;-78
2023/04/26 02:05:21;;;;;;;7.32;2.72;;;0.90;99.90;;;;;;4973667;28;20043;-77
2023/04/26 02:07:46;;;;;;;0.00;0.00;;;0.90;99.90;;;;;;4970901;28;20051;-78
2023/04/26 02:10:12;;;;;;;0.00;0.00;;;0.90;99.90;;;;;;4970096;28;20072;-78
2023/04/26 02:12:38;;;;;;;0.00;0.00;;;0.90;99.90;;;;;;4967765;28;20126;-79
2023/04/26 02:15:05;;;;;;;0.00;0.00;;;0.90;99.90;;;;;;4965628;28;20273;-78
2023/04/26 02:17:31;;;;;;;1.38;0.60;;;0.90;99.90;;;;;;4996848;28;20157;-78
2023/04/26 02:19:57;;;;;;;0.10;0.10;;;0.90;99.90;;;;;;4964968;28;20634;-78
2023/04/26 02:22:24;;;;;;;0.70;0.70;;;1.00;99.90;;;;;;4965280;28;20058;-78
2023/04/26 02:24:52;;;;;;;0.00;0.00;;;0.90;99.90;;;;;;4965429;28;20485;-79
2023/04/26 02:27:18;;;;;;;0.15;0.15;;;0.90;99.90;;;;;;4966065;28;20440;-78
2023/04/26 02:29:45;;;;;;;0.28;0.28;;;0.80;99.90;;;;;;4966045;28;20061;-78
2023/04/26 02:32:12;;;;;;;1.45;1.20;;;0.80;99.90;;;;;;4964995;28;20058;-78
2023/04/26 02:34:38;;;;;;;0.00;0.00;;;0.70;99.90;;;;;;4965372;28;20488;-78
2023/04/26 02:37:03;;;;;;;0.10;0.10;;;0.70;99.90;;;;;;4965393;28;20146;-78
2023/04/26 02:39:29;;;;;;;0.00;0.00;;;0.70;99.90;;;;;;4965006;28;20057;-79
2023/04/26 02:41:55;;;;;;;0.32;0.32;;;0.60;99.90;;;;;;4965240;28;20109;-78
2023/04/26 02:44:20;;;;;;;0.40;0.22;;;0.60;99.90;;;;;;4964716;28;20047;-78
2023/04/26 02:46:46;;;;;;;0.10;0.10;;;0.50;99.90;;;;;;4963234;28;20133;-79
2023/04/26 02:49:11;;;;;;;0.00;0.00;;;0.50;99.90;;;;;;4965080;28;20090;-78
2023/04/26 02:51:37;;;;;;;0.08;0.08;;;0.50;99.90;;;;;;4964580;28;20508;-78
2023/04/26 02:54:03;;;;;;;0.10;0.10;;;0.50;99.90;;;;;;4964248;28;20047;-79
2023/04/26 02:56:29;;;;;;;0.00;0.00;;;0.50;99.90;;;;;;4965301;28;20154;-78
2023/04/26 02:58:55;;;;;;;0.00;0.00;;;0.50;99.90;;;;;;4963712;28;20112;-78
2023/04/26 03:01:20;;;;;;;0.00;0.00;;;0.50;99.90;;;;;;4964440;28;20047;-79
2023/04/26 03:03:46;;;;;;;0.00;0.00;;;0.40;99.90;;;;;;4964386;28;20724;-78
2023/04/26 03:06:12;;;;;;;0.00;0.00;;;0.40;99.90;;;;;;4965071;28;20054;-78
2023/04/26 03:08:38;;;;;;;0.50;0.50;;;0.40;99.90;;;;;;4965106;28;20125;-78
2023/04/26 03:11:03;;;;;;;0.55;0.55;;;0.40;99.90;;;;;;4964853;28;20093;-78
2023/04/26 03:13:29;;;;;;;0.10;0.10;;;0.40;99.90;;;;;;4965048;28;20086;-78
2023/04/26 03:15:55;;;;;;;0.00;0.00;;;0.40;99.90;;;;;;4963272;28;20047;-78
2023/04/26 03:18:20;;;;;;;0.30;0.30;;;0.40;99.90;;;;;;4964850;28;20680;-78
2023/04/26 03:20:47;;;;;;;0.00;0.00;;;0.40;99.90;;;;;;4964258;28;20539;-78
2023/04/26 03:23:13;;;;;;;0.00;0.00;;;0.30;99.90;;;;;;4964657;28;20057;-78
2023/04/26 03:25:38;;;;;;;2.78;1.35;;;0.40;99.90;;;;;;4963775;28;20479;-78
2023/04/26 03:28:04;;;;;;;0.10;0.10;;;0.30;99.90;;;;;;4964008;28;20047;-78
2023/04/26 03:30:30;;;;;;;0.00;0.00;;;0.30;99.90;;;;;;4963891;28;20726;-78
2023/04/26 03:32:56;;;;;;;0.00;0.00;;;0.40;99.90;;;;;;4964932;28;20164;-78
2023/04/26 03:35:22;;;;;;;0.90;0.82;;;0.40;99.90;;;;;;4964662;28;20061;-78
2023/04/26 03:37:48;;;;;;;0.22;0.22;;;0.50;99.90;;;;;;4963822;28;20455;-79
2023/04/26 03:40:13;;;;;;;0.00;0.00;;;0.70;99.90;;;;;;4963482;28;20117;-79
2023/04/26 03:42:39;;;;;;;0.00;0.00;;;0.80;99.90;;;;;;4963442;28;20173;-78
2023/04/26 03:45:05;;;;;;;0.00;0.00;;;0.90;99.90;;;;;;4963906;28;20541;-77
2023/04/26 03:47:31;;;;;;;0.00;0.00;;;1.00;99.90;;;;;;4963894;28;20129;-78
2023/04/26 03:49:57;;;;;;;0.00;0.00;;;1.00;99.90;;;;;;4964036;28;20192;-78
2023/04/26 03:52:23;;;;;;;0.10;0.10;;;1.00;99.90;;;;;;4964450;28;20059;-78
2023/04/26 03:54:48;;;;;;;0.20;0.20;;;1.00;99.90;;;;;;4964129;28;20062;-79
2023/04/26 03:57:14;;;;;;;1.50;1.40;;;1.00;99.90;;;;;;4964461;28;20047;-79
2023/04/26 03:59:40;;;;;;;0.00;0.00;;;1.00;99.90;;;;;;4964864;28;20130;-79
2023/04/26 04:02:06;;;;;;;1.55;1.45;;;1.00;99.90;;;;;;4965359;28;20120;-79
2023/04/26 04:04:32;;;;;;;0.00;0.00;;;1.00;99.90;;;;;;4965266;28;20050;-79
2023/04/26 04:06:58;;;;;;;0.00;0.00;;;1.00;99.90;;;;;;4966495;28;20050;-78
2023/04/26 04:09:24;;;;;;;0.00;0.00;;;0.90;99.90;;;;;;4968282;28;20069;-78
2023/04/26 04:11:50;;;;;;;0.00;0.00;;;0.80;99.90;;;;;;4967832;28;20142;-78
2023/04/26 04:14:16;;;;;;;0.00;0.00;;;0.90;99.90;;;;;;4967381;28;20094;-78
2023/04/26 04:16:42;;;;;;;0.25;0.25;;;0.90;99.90;;;;;;4966780;28;20086;-79
2023/04/26 04:19:08;;;;;;;0.00;0.00;;;1.00;99.90;;;;;;4967249;28;20066;-78
2023/04/26 04:21:34;;;;;;;0.00;0.00;;;1.10;99.90;;;;;;4966674;28;20051;-78
2023/04/26 04:24:00;;;;;;;0.00;0.00;;;1.20;99.90;;;;;;4967151;28;20073;-78
2023/04/26 04:26:29;;;;;;;0.10;0.10;;;1.20;99.90;;;;;;4967191;28;20054;-78
2023/04/26 04:28:56;;;;;;;0.00;0.00;;;1.20;99.90;;;;;;4967802;28;20086;-78
2023/04/26 04:31:21;;;;;;;0.03;0.03;;;1.20;99.90;;;;;;4967357;28;20078;-79
2023/04/26 04:33:47;;;;;;;0.00;0.00;;;1.20;99.90;;;;;;4967470;28;20547;-78
2023/04/26 04:36:15;;;;;;;0.35;0.35;;;1.20;99.90;;;;;;4965513;28;20050;-79
2023/04/26 04:38:41;;;;;;;0.00;0.00;;;1.20;99.90;;;;;;4968546;28;20070;-78
2023/04/26 04:41:07;;;;;;;0.00;0.00;;;1.30;99.90;;;;;;4967774;28;20050;-78
2023/04/26 04:43:33;;;;;;;0.00;0.00;;;1.40;99.90;;;;;;4967572;28;20453;-79
2023/04/26 04:45:59;;;;;;;0.00;0.00;;;1.50;99.90;;;;;;4968576;28;20046;-78
2023/04/26 04:48:24;;;;;;;0.00;0.00;;;1.60;99.90;;;;;;4967775;28;20054;-79
2023/04/26 04:50:50;;;;;;;0.00;0.00;;;1.70;99.90;;;;;;4967498;28;20515;-78
2023/04/26 04:53:16;;;;;;;0.10;0.10;;;1.80;99.90;;;;;;4967775;28;20050;-80
2023/04/26 04:55:42;;;;;;;0.00;0.00;;;1.90;99.90;;;;;;4967649;28;20070;-78
2023/04/26 04:58:07;;;;;;;0.47;0.47;;;2.00;99.90;;;;;;4969006;28;20054;-78
2023/04/26 05:00:33;;;;;;;0.00;0.00;;;2.00;99.90;;;;;;4968523;28;20050;-80
2023/04/26 05:02:59;;;;;;;0.00;0.00;;;2.10;99.90;;;;;;4970297;28;20055;-79
2023/04/26 05:05:24;;;;;;;0.05;0.05;;;2.20;99.90;;;;;;4970619;28;20061;-79
2023/04/26 05:07:50;;;;;;;0.00;0.00;;;2.30;99.90;;;;;;4970267;28;20117;-80
2023/04/26 05:10:16;;;;;;;0.00;0.00;;;2.40;99.90;;;;;;4969425;28;20447;-79
2023/04/26 05:12:42;;;;;;;0.43;0.25;;;2.60;99.90;;;;;;4970366;28;20072;-79
2023/04/26 05:15:08;;;;;;;0.00;0.00;;;2.60;99.90;;;;;;4970384;28;20051;-79
2023/04/26 05:17:33;;;;;;;0.10;0.10;;;2.70;99.90;;;;;;4970228;28;20054;-79
2023/04/26 05:20:01;;;;;;;0.08;0.08;;;2.80;99.90;;;;;;4970330;28;20051;-79
2023/04/26 05:22:27;;;;;;;0.00;0.00;;;2.90;99.90;;;;;;4970636;28;20077;-79
2023/04/26 05:24:53;;;;;;;0.10;0.10;;;3.00;99.90;;;;;;4970392;28;20047;-79
2023/04/26 05:27:19;;;;;;;0.00;0.00;;;2.90;99.90;;;;;;4970715;28;20042;-80
2023/04/26 05:29:44;;;;;;;0.20;0.20;;;2.90;63.00;;;;;;4969688;28;20043;-79
2023/04/26 05:32:10;;;;;;;0.22;0.22;;;2.80;19.00;;;;;;4968961;28;20042;-79
2023/04/26 05:34:37;;;;;;;0.00;0.00;;;2.80;5.60;;;;;;4969752;28;20065;-78
2023/04/26 05:37:02;;;;;;;0.00;0.00;;;2.70;1.00;;;;;;4967481;28;20078;-79
2023/04/26 05:39:28;;;;;;;0.88;0.85;;;2.70;15.80;;;;;;4969459;28;20170;-78
2023/04/26 05:41:54;;;;;;;0.10;0.10;;;2.60;23.40;;;;;;4969752;28;20438;-79
2023/04/26 05:44:20;;;;;;;0.00;0.00;;;2.60;46.00;;;;;;4968514;28;20049;-79
2023/04/26 05:46:46;;;;;;;1.20;0.55;;;2.60;71.80;;;;;;4968622;28;20050;-79
2023/04/26 05:49:12;;;;;;;0.70;0.68;;;2.70;93.50;;;;;;4969585;28;20607;-79
2023/04/26 05:51:37;;;;;;;0.00;0.00;;;2.80;91.20;;;;;;4969482;28;20502;-79
2023/04/26 05:54:03;;;;;;;1.25;0.85;;;3.00;58.70;;;;;;4968831;28;20051;-79
2023/04/26 05:56:28;;;;;;;0.22;0.22;;;3.10;29.30;;;;;;4968917;28;20125;-78
2023/04/26 05:58:54;;;;;;;0.00;0.00;;;3.20;22.20;;;;;;4968849;28;20058;-79
2023/04/26 06:01:20;;;;;;;0.10;0.10;;;3.40;1.00;;;;;;4968711;28;20205;-80
2023/04/26 06:03:46;;;;;;;0.00;0.00;;;3.60;1.00;;;;;;4969187;28;20053;-79
2023/04/26 06:06:12;;;;;;;2.55;2.33;;;3.90;1.00;;;;;;4970478;28;20148;-79
2023/04/26 06:08:38;;;;;;;0.00;0.00;;;4.40;99.90;;;;;;4969499;28;20059;-79
2023/04/26 06:11:04;;;;;;;0.00;0.00;;;4.90;99.90;;;;;;4968659;28;20069;-79
2023/04/26 06:13:30;;;;;;;0.00;0.00;;;5.30;1.00;;;;;;4972043;28;20043;-79
2023/04/26 06:15:55;;;;;;;0.00;0.00;;;6.00;99.90;;;;;;4970442;28;20082;-78
2023/04/26 06:18:21;;;;;;;0.00;0.00;;;6.60;99.90;;;;;;4970852;28;20050;-79
2023/04/26 06:20:47;;;;;;;0.75;0.47;;;6.80;99.90;;;;;;4973953;28;20058;-80
2023/04/26 06:23:13;;;;;;;0.00;0.00;;;6.80;41.40;;;;;;4974044;28;20055;-79
2023/04/26 06:25:43;;;;;;;3.95;0.75;;;6.80;99.90;;;;;;4971073;28;20097;-79
2023/04/26 06:28:10;;;;;;;0.00;0.00;;;6.70;99.90;;;;;;4972128;28;20090;-79
2023/04/26 06:30:36;;;;;;;0.00;0.00;;;6.60;99.90;;;;;;4971891;28;20057;-79
2023/04/26 06:33:01;;;;;;;0.00;0.00;;;6.70;99.90;;;;;;4971182;28;20473;-80
2023/04/26 06:35:27;;;;;;;0.00;0.00;;;6.70;99.90;;;;;;4971073;28;20404;-79
2023/04/26 06:37:53;;;;;;;0.00;0.00;;;6.70;99.90;;;;;;4971159;28;20104;-79
2023/04/26 06:40:19;;;;;;;0.00;0.00;;;6.90;99.90;;;;;;4972148;28;20105;-80
2023/04/26 06:42:45;;;;;;;0.75;0.70;;;6.80;99.90;;;;;;4969191;28;20078;-79
2023/04/26 06:45:11;;;;;;;0.00;0.00;;;6.90;99.90;;;;;;4968430;28;20049;-79
2023/04/26 06:47:37;;;;;;;0.00;0.00;;;7.00;99.90;;;;;;4968598;28;20112;-78
2023/04/26 06:50:03;;;;;;;0.00;0.00;;;7.50;99.90;;;;;;4968762;28;20050;-79
2023/04/26 06:52:29;;;;;;;0.63;0.43;;;8.10;1.00;;;;;;4968738;28;20169;-79
2023/04/26 06:54:55;;;;;;;0.00;0.00;;;8.70;1.00;;;;;;4968537;28;20058;-79
2023/04/26 06:57:21;;;;;;;0.00;0.00;;;9.10;99.90;;;;;;4968048;28;20424;-79
2023/04/26 06:59:47;;;;;;;0.13;0.13;;;9.10;99.90;;;;;;4967223;28;20493;-79
2023/04/26 07:02:13;;;;;;;0.00;0.00;;;9.00;99.90;;;;;;4968719;28;20058;-79
2023/04/26 07:04:39;;;;;;;0.10;0.10;;;9.50;99.90;;;;;;4963470;28;20047;-79
2023/04/26 07:07:05;;;;;;;13.57;1.05;;;10.60;99.90;;;;;;4968473;28;20069;-79
2023/04/26 07:09:30;;;;;;;0.35;0.35;;;11.40;99.90;;;;;;4969108;28;20042;-79
2023/04/26 07:11:56;;;;;;;1.67;1.58;;;11.60;99.90;;;;;;4969595;28;20130;-80
2023/04/26 07:14:23;;;;;;;0.00;0.00;;;12.20;99.90;;;;;;4970167;28;20054;-80
2023/04/26 07:16:49;;;;;;;0.80;0.20;;;12.60;99.90;;;;;;4970035;28;20054;-79
2023/04/26 07:19:15;;;;;;;1.65;0.57;;;12.50;99.90;;;;;;4969802;28;20065;-80
2023/04/26 07:21:41;;;;;;;0.00;0.00;;;12.70;99.90;;;;;;4969815;28;20208;-79
2023/04/26 07:24:07;;;;;;;0.00;0.00;;;12.60;99.90;;;;;;5001533;28;20062;-79
2023/04/26 07:26:35;;;;;;;0.82;0.28;;;12.30;99.90;;;;;;4970071;28;20187;-79
2023/04/26 07:29:02;;;;;;;0.22;0.10;;;12.20;99.90;;;;;;4969261;28;20482;-79
2023/04/26 07:31:32;;;;;;;0.75;0.70;;;11.70;99.90;;;;;;4969433;28;20051;-79
2023/04/26 07:33:58;;;;;;;0.10;0.10;;;11.20;99.90;;;;;;4970380;28;20492;-79
2023/04/26 07:36:24;;;;;;;1.65;0.65;;;10.90;99.90;;;;;;4968299;28;20053;-79
2023/04/26 07:38:49;;;;;;;0.00;0.00;;;10.80;99.90;;;;;;4967975;28;20508;-80
2023/04/26 07:41:16;;;;;;;0.00;0.00;;;11.30;99.90;;;;;;4969464;28;20047;-80
2023/04/26 07:43:42;;;;;;;0.17;0.10;;;12.20;99.90;;;;;;4972902;28;20047;-79
2023/04/26 07:46:09;;;;;;;0.03;0.03;;;13.20;99.90;;;;;;4973390;28;20053;-79
2023/04/26 07:48:34;;;;;;;0.10;0.05;;;13.70;99.90;;;;;;4971159;28;20050;-79
2023/04/26 07:51:07;;;;;;;0.05;0.05;;;14.10;99.90;;;;;;4972567;28;20039;-80
2023/04/26 07:53:33;;;;;;;0.00;0.00;;;14.00;99.90;;;;;;4973056;28;20049;-80
2023/04/26 07:55:59;;;;;;;0.00;0.00;;;14.10;99.90;;;;;;4974113;28;20401;-80
2023/04/26 07:58:25;;;;;;;1.80;0.98;;;14.40;99.90;;;;;;4972551;28;20055;-79
2023/04/26 08:00:51;;;;;;;0.00;0.00;;;14.80;99.90;;;;;;4972451;28;20043;-80
2023/04/26 08:03:17;;;;;;;0.25;0.20;;;14.40;99.90;;;;;;4971716;28;20070;-80
2023/04/26 08:05:43;;;;;;;0.32;0.10;;;14.40;99.90;;;;;;4971980;28;20045;-79
2023/04/26 08:08:08;;;;;;;0.20;0.20;;;14.00;99.90;;;;;;4971511;28;20130;-79
2023/04/26 08:10:34;;;;;;;0.13;0.13;;;13.80;99.90;;;;;;4969116;28;20070;-80
2023/04/26 08:13:02;;;;;;;0.00;0.00;;;13.50;94.70;;;;;;4969061;28;20153;-80
2023/04/26 08:15:28;;;;;;;0.00;0.00;;;13.60;99.90;;;;;;4970612;28;20371;-79
2023/04/26 08:17:54;;;;;;;0.20;0.20;;;13.80;99.90;;;;;;4970028;28;20112;-80
2023/04/26 08:20:19;;;;;;;0.45;0.20;;;14.00;99.90;;;;;;4969563;28;20090;-80
2023/04/26 08:22:45;;;;;;;0.00;0.00;;;14.60;99.90;;;;;;4967827;28;20047;-80
2023/04/26 08:25:11;;;;;;;0.00;0.00;;;13.90;95.90;;;;;;4968123;28;20083;-80
2023/04/26 08:27:36;;;;;;;0.30;0.20;;;13.80;90.10;;;;;;4968260;28;20394;-80
2023/04/26 08:30:03;;;;;;;0.22;0.22;;;13.50;90.70;;;;;;4967182;28;20108;-80
2023/04/26 08:32:29;;;;;;;0.05;0.05;;;13.70;94.50;;;;;;4967820;28;20038;-80
2023/04/26 08:34:55;;;;;;;0.30;0.30;;;14.10;93.70;;;;;;4968173;28;20081;-80
2023/04/26 08:37:21;;;;;;;0.00;0.00;;;14.50;98.60;;;;;;4967840;28;20039;-80
2023/04/26 08:39:46;;;;;;;0.10;0.10;;;14.90;99.90;;;;;;4968051;28;20050;-80
2023/04/26 08:42:14;;;;;;;0.00;0.00;;;14.20;82.50;;;;;;4968814;28;20129;-80
2023/04/26 08:44:44;;;;;;;0.52;0.52;;;13.40;59.00;;;;;;4964010;28;20051;-80
2023/04/26 08:47:19;;;;;;;1.73;0.47;;;12.40;23.10;;;;;;4964570;28;20112;-80
2023/04/26 08:49:58;;;;;;;2.50;1.35;;;11.70;9.50;;;;;;4964995;28;20145;-80
2023/04/26 08:52:26;;;;;;;0.32;0.25;;;10.90;1.00;;;;;;4964967;28;20523;-80
2023/04/26 08:54:55;;;;;;;0.00;0.00;;;10.60;1.00;;;;;;4965717;28;20058;-80
2023/04/26 08:57:22;;;;;;;0.00;0.00;;;9.90;1.00;;;;;;4964027;28;20684;-80
2023/04/26 08:59:49;;;;;;;0.08;0.08;;;9.80;1.00;;;;;;4964813;28;20090;-80
2023/04/26 09:02:22;;;;;;;1.00;0.52;;;10.10;1.00;;;;;;4964803;28;20051;-80
2023/04/26 09:04:49;;;;;;;1.67;0.90;;;10.20;1.00;;;;;;4964736;28;20085;-79
2023/04/26 09:07:29;;;;;;;0.10;0.10;;;10.50;7.80;;;;;;4964906;28;20432;-80
2023/04/26 09:09:57;;;;;;;0.10;0.10;;;10.70;11.50;;;;;;4965815;28;20051;-80
2023/04/26 09:12:23;;;;;;;2.08;0.98;;;10.60;1.90;;;;;;4965583;28;20047;-79
2023/04/26 09:14:48;;;;;;;0.00;0.00;;;10.50;14.30;;;;;;4966624;28;20039;-79
2023/04/26 09:17:44;;;;;;;0.13;0.13;;;10.60;14.50;;;;;;4964148;28;20046;-79
2023/04/26 09:20:25;;;;;;;3.70;1.55;;;10.70;8.00;;;;;;4998835;28;20120;-80
2023/04/26 09:22:53;;;;;;;0.20;0.20;;;10.60;14.10;;;;;;4964244;28;20070;-79
2023/04/26 09:25:28;;;;;;;0.00;0.00;;;10.20;1.00;;;;;;4965622;28;20056;-79
2023/04/26 09:27:54;;;;;;;0.00;0.00;;;10.00;13.10;;;;;;4964225;28;20053;-80
2023/04/26 09:30:21;;;;;;;0.00;0.00;;;9.40;30.90;;;;;;4963280;28;20411;-79
2023/04/26 09:32:51;;;;;;;0.00;0.00;;;8.80;38.60;;;;;;4963407;28;20054;-79
2023/04/26 09:35:27;;;;;;;0.25;0.25;;;8.60;68.40;;;;;;4945238;28;20416;-79
2023/04/26 09:37:59;;;;;;;;;;;8.30;99.90;;;;;;4964272;28;20085;-79
2023/04/26 09:40:27;;;;;;;0.25;0.25;;;8.10;99.90;;;;;;4961224;28;20381;-79
2023/04/26 09:42:57;;;;;;;0.00;0.00;;;8.00;99.90;;;;;;4962617;28;20047;-79
2023/04/26 09:45:24;;;;;;;0.75;0.70;;;8.00;99.90;;;;;;4962178;28;20050;-79
2023/04/26 09:47:50;;;;;;;0.75;0.55;;;8.10;99.90;;;;;;4961598;28;20050;-79
2023/04/26 09:50:29;;;;;;;0.00;0.00;;;8.10;99.90;;;;;;4960480;28;20043;-79
2023/04/26 09:52:55;;;;;;;0.00;0.00;;;8.20;99.90;;;;;;4961588;28;20057;-79
2023/04/26 09:55:29;;;;;;;0.25;0.15;;;8.20;99.90;;;;;;4962982;28;20051;-79
2023/04/26 09:58:06;;;;;;;0.00;0.00;;;8.40;99.90;;;;;;4961453;28;20047;-79
2023/04/26 10:00:32;;;;;;;0.00;0.00;;;8.50;99.90;;;;;;4961241;28;20504;-79
2023/04/26 10:02:58;;;;;;;0.08;0.08;;;8.80;99.90;;;;;;4958158;28;20043;-79
2023/04/26 10:05:25;;;;;;;0.00;0.00;;;9.20;99.90;;;;;;4942906;28;20524;-79
2023/04/26 10:07:51;;;;;;;0.17;0.17;;;9.30;93.50;;;;;;4948059;28;20524;-79
2023/04/26 10:10:17;;;;;;;0.00;0.00;;;9.60;99.90;;;;;;4962546;28;20051;-79
2023/04/26 10:12:43;;;;;;;0.10;0.10;;;10.60;87.10;;;;;;4962291;28;20141;-79
2023/04/26 10:15:10;;;;;;;0.47;0.43;;;10.00;90.50;;;;;;4962853;28;20125;-79
2023/04/26 10:17:39;;;;;;;0.00;0.00;;;10.30;97.30;;;;;;4962544;28;20030;-79
2023/04/26 10:20:12;;;;;;;0.05;0.05;;;10.50;89.40;;;;;;4962840;28;20054;-79
2023/04/26 10:22:45;;;;;;;0.00;0.00;;;10.80;90.50;;;;;;4963085;28;20603;-79
2023/04/26 10:25:11;;;;;;;0.00;0.00;;;11.10;83.10;;;;;;4958639;28;20093;-79
2023/04/26 10:27:43;;;;;;;0.20;0.15;;;11.40;99.70;;;;;;4963414;28;20601;-79
2023/04/26 10:30:13;;;;;;;0.15;0.15;;;11.80;98.00;;;;;;4962060;28;20050;-79
2023/04/26 10:32:53;;;;;;;0.13;0.10;;;12.00;97.30;;;;;;4962921;28;20049;-79
2023/04/26 10:35:20;;;;;;;0.20;0.20;;;12.10;92.50;;;;;;4963708;28;20054;-79
2023/04/26 10:38:12;;;;;;;0.10;0.10;;;12.10;93.80;;;;;;4963238;28;20065;-79
2023/04/26 10:40:39;;;;;;;0.10;0.00;;;12.30;99.90;;;;;;4950069;28;20061;-78
2023/04/26 10:43:14;;;;;;;0.10;0.10;;;12.50;91.50;;;;;;4962471;28;20509;-79
2023/04/26 10:45:44;;;;;;;1.45;0.65;;;12.70;99.90;;;;;;4963084;28;20663;-79
2023/04/26 10:48:18;;;;;;;0.00;0.00;;;12.70;93.30;;;;;;4963846;28;20615;-79
2023/04/26 10:51:11;;;;;;;0.28;0.17;;;12.30;92.70;;;;;;4963933;28;20047;-79
2023/04/26 10:53:45;;;;;;;0.22;0.13;;;11.80;93.00;;;;;;4964280;28;20070;-79
2023/04/26 10:56:31;;;;;;;0.30;0.20;;;11.50;80.00;;;;;;4963845;28;20500;-79
2023/04/26 10:59:13;;;;;;;0.07;0.07;;;10.70;45.20;;;;;;4960922;28;20057;-79
2023/04/26 11:01:39;;;;;;;0.30;0.20;;;9.90;26.00;;;;;;4962139;28;20449;-79
2023/04/26 11:04:09;;;;;;;0.75;0.75;;;9.10;80.50;;;;;;4965324;28;20045;-80
2023/04/26 11:06:51;;;;;;;3.42;0.63;;;8.50;99.90;;;;;;4967272;28;20046;-81
2023/04/26 11:09:33;;;;;;;0.45;0.30;;;8.20;99.90;;;;;;4967326;28;20085;-80
2023/04/26 11:11:59;;;;;;;0.00;0.00;;;7.90;99.90;;;;;;4966680;28;20104;-81
2023/04/26 11:14:25;;;;;;;0.60;0.35;;;8.10;99.90;;;;;;4966836;28;20057;-81
2023/04/26 11:16:51;;;;;;;0.08;0.08;;;8.30;39.90;;;;;;5029227;28;20128;-81
2023/04/26 11:19:16;;;;;;;0.00;0.00;;;8.70;99.90;;;;;;4949901;29;20074;-81
2023/04/26 11:21:42;;;;;;;0.00;0.00;;;9.30;99.90;;;;;;4950239;29;20107;-81
2023/04/26 11:24:08;;;;;;;0.28;0.25;;;9.90;99.90;;;;;;4962627;28;20043;-81
2023/04/26 11:26:37;;;;;;;0.00;0.00;;;10.10;99.90;;;;;;4969882;28;20489;-81
2023/04/26 11:29:03;;;;;;;0.35;0.32;;;10.30;99.90;;;;;;4969164;28;20046;-81
2023/04/26 11:31:29;;;;;;;0.00;0.00;;;10.50;99.90;;;;;;4968914;28;20054;-80
2023/04/26 11:34:03;;;;;;;0.52;0.32;;;10.30;99.90;;;;;;4967960;28;20078;-80
2023/04/26 11:36:28;;;;;;;0.10;0.10;;;9.70;99.90;;;;;;4968942;28;20054;-80
2023/04/26 11:38:54;;;;;;;1.15;0.68;;;9.20;99.90;;;;;;4968585;28;20047;-80
2023/04/26 11:41:22;;;;;;;0.98;0.65;;;9.40;99.90;;;;;;4969205;28;20124;-80
2023/04/26 11:43:48;;;;;;;0.00;0.00;;;8.60;99.90;;;;;;4968831;28;20059;-78
2023/04/26 11:46:13;;;;;;;0.00;0.00;;;8.60;99.90;;;;;;4967117;28;20409;-80
2023/04/26 11:48:40;;;;;;;0.00;0.00;;;8.50;99.90;;;;;;4969410;28;20050;-80
2023/04/26 11:51:07;;;;;;;0.00;0.00;;;8.50;99.90;;;;;;4967525;28;20055;-79
2023/04/26 11:53:39;;;;;;;0.03;0.03;;;8.70;99.90;;;;;;4969578;28;20520;-80
2023/04/26 11:56:19;;;;;;;0.25;0.15;;;9.00;99.90;;;;;;4972845;28;20058;-80
2023/04/26 11:58:46;;;;;;;0.08;0.08;;;9.40;99.90;;;;;;4971814;28;20053;-79
2023/04/26 12:01:22;;;;;;;0.20;0.15;;;9.50;99.90;;;;;;4970786;28;20054;-79
2023/04/26 12:03:49;;;;;;;;;;;9.80;99.90;;;;;;4971711;28;20086;-79
2023/04/26 12:06:14;;;;;;;0.00;0.00;;;10.30;99.90;;;;;;4971239;28;19926;-79
2023/04/26 12:08:40;;;;;;;0.00;0.00;;;10.80;99.90;;;;;;4965961;28;20404;-79
2023/04/26 12:11:06;;;;;;;0.03;0.03;;;11.20;99.90;;;;;;4962880;28;20050;-79
2023/04/26 12:13:32;;;;;;;0.00;0.00;;;11.70;99.90;;;;;;4963776;28;20062;-79
2023/04/26 12:15:58;;;;;;;0.43;0.43;;;11.80;99.90;;;;;;4964413;28;20090;-79
2023/04/26 12:18:31;;;;;;;0.00;0.00;;;11.90;96.90;;;;;;4964128;28;20086;-79
2023/04/26 12:20:58;;;;;;;0.00;0.00;;;11.50;78.10;;;;;;4963450;28;20063;-79
2023/04/26 12:23:25;;;;;;;0.38;0.38;;;11.50;63.40;;;;;;4964447;28;20412;-79
2023/04/26 12:25:54;;;;;;;0.43;0.43;;;11.30;55.80;;;;;;4963103;28;20081;-79
2023/04/26 12:28:20;;;;;;;0.43;0.43;;;10.80;47.10;;;;;;4966106;28;20519;-79
2023/04/26 12:30:46;;;;;;;4.95;0.25;;;10.80;53.30;;;;;;4967819;28;20055;-79
2023/04/26 12:33:12;;;;;;;0.00;0.00;;;10.80;63.60;;;;;;4966246;28;20058;-79
2023/04/26 12:35:39;;;;;;;0.20;0.20;;;11.20;59.50;;;;;;4965280;28;20053;-79
2023/04/26 12:38:04;;;;;;;1.25;0.35;;;11.20;49.40;;;;;;4965336;28;20050;-79
2023/04/26 12:40:30;;;;;;;0.80;0.30;;;11.30;27.60;;;;;;4964113;28;20043;-79
2023/04/26 12:42:57;;;;;;;0.22;0.13;;;11.40;29.30;;;;;;4966070;28;20157;-79
2023/04/26 12:45:24;;;;;;;0.10;0.10;;;11.40;6.30;;;;;;4996202;28;20409;-79
2023/04/26 12:47:50;;;;;;;0.43;0.35;;;11.40;9.50;;;;;;4965166;28;20051;-79
2023/04/26 12:50:16;;;;;;;0.00;0.00;;;11.60;10.80;;;;;;4964068;28;20169;-79
2023/04/26 12:52:44;;;;;;;0.00;0.00;;;11.30;1.00;;;;;;4964516;28;20100;-79
2023/04/26 12:55:12;;;;;;;0.00;0.00;;;11.20;1.00;;;;;;4965088;28;20043;-79